Aérodrome :
LOGIN :

S'inscrire | Disclaimer

   EN    FR    IT 

 










Légende :    VFR   VFR Marginal   IFR   IFR Intensif   IFR Très Intensif
Visi : 
Plafond : 
>= 8 km
>= 3000ft
5 à 8 km
1000 à 3000 ft
1500m à 5 km
500 à 1000 ft
800 à 1500m
200 à 500 ft
< 800m
< 200 ft
Symboles :   Orages  Brouillard  Fortes neiges  Fortes précipitations  Vent > 20 kt
SIGMETs :   Divers  Orages  Givrage  Turbulence  Onde Orograph.  Cendres Volcan.







- Altitude de l'aérodrome : 584 ft
- Voir les cartes d'approche


LFPV - Villacoublay Vélizy

DERNIER METAR :
  • 120430Z AUTO 12004KT 080V150 4600 BR BKN002 00/00 Q1022 TEMPO 0800 FG OVC000

METARs EXPIRÉS :
  • 120400Z AUTO 11004KT 080V140 4600 BR BKN003 01/00 Q1022 TEMPO 0800 FG OVC000
  • 120330Z AUTO 12004KT 090V150 5000 BR OVC002 01/00 Q1023 TEMPO 0800 FG OVC000
  • 120300Z AUTO 14005KT 110V170 5000 BR OVC003 01/01 Q1023 TEMPO 0800 FG OVC000
  • 120230Z AUTO 12006KT 080V150 4200 BR OVC003 01/01 Q1023 TEMPO 0800 FG OVC000
  • 120200Z AUTO 12005KT 090V150 4100 BR BKN002 01/01 Q1023 TEMPO 0600 FG OVC000

TAF TAF LFPV
Valide du 12 à 03h jusqu'au 13 à 03h UTC


120200Z 1203/1303 12005KT 4000 BR BKN003
TEMPO 1203/1207 2000 BR BKN002
PROB40
TEMPO 1203/1207 0800 FG OVC000
BECMG 1207/1209 6000 NSW BKN012
BECMG 1209/1211 SCT020
BECMG 1216/1218 BKN006
TEMPO 1220/1303 3000 BR BKN003
Pas de NOTAMs connus pour ce terrain.



MET'MAP, la Météo Aéronautique d'un coup d'oeil ! - Copyright ORBIFLY Décembre 2007 - Disclaimer

ORBIFLY MET'MAP TEAM :

Programmation & Développement : Alexandra Zaïnal
Conception & Développement : Baudouin d'Aumeries
Co-Programmation & Développement : Marc-Olivier Méhu
Soutien technique & logistique : Manuel Goepfert

Contact : metmap@orbifly.com




SOURCES & CREDITS :

   NOAA